Time;durP1;ratioP1;P1;durP2;ratioP2;P2;SDS_P1;SDS_P2;PMS_P1;PMS_P2;Temp;Humidity;BMP_temperature;BMP_pressure;BME280_temperature;BME280_humidity;BME280_pressure;Samples;Min_cycle;Max_cycle;Signal;HPM_P1;HPM_P2
2021/11/01 00:00:02;;;;;;;;;;;12.60;99.90;;;;;;5087882;28;20390;-75
2021/11/01 00:02:28;;;;;;;;;;;12.70;99.90;;;;;;5081839;28;19909;-75
2021/11/01 00:04:54;;;;;;;;;;;12.90;99.90;;;;;;5081414;28;19919;-74
2021/11/01 00:07:19;;;;;;;;;;;12.90;99.90;;;;;;5090165;28;19908;-75
2021/11/01 00:09:45;;;;;;;;;;;13.00;99.90;;;;;;5094206;28;19923;-75
2021/11/01 00:12:12;;;;;;;;;;;13.10;99.90;;;;;;5095093;28;20290;-74
2021/11/01 00:14:38;;;;;;;;;;;13.10;99.90;;;;;;5095129;28;19999;-75
2021/11/01 00:17:03;;;;;;;;;;;13.20;99.90;;;;;;5095031;28;19964;-74
2021/11/01 00:19:29;;;;;;;;;;;13.30;99.90;;;;;;5094933;28;19916;-74
2021/11/01 00:21:54;;;;;;;;;;;13.30;99.90;;;;;;5094675;28;19915;-75
2021/11/01 00:24:20;;;;;;;;;;;13.20;99.90;;;;;;5094903;28;19908;-75
2021/11/01 00:26:45;;;;;;;;;;;13.30;99.90;;;;;;5094741;28;20290;-75
2021/11/01 00:29:11;;;;;;;;;;;13.10;99.90;;;;;;5094590;28;20263;-74
2021/11/01 00:31:37;;;;;;;;;;;13.00;99.90;;;;;;5094284;28;19908;-74
2021/11/01 00:34:02;;;;;;;;;;;13.10;99.90;;;;;;5090604;28;20255;-75
2021/11/01 00:36:28;;;;;;;;;;;13.00;99.90;;;;;;5093732;28;20383;-74
2021/11/01 00:38:53;;;;;;;;;;;13.00;99.90;;;;;;5094624;28;19912;-75
2021/11/01 00:41:19;;;;;;;;;;;13.10;99.90;;;;;;5094015;28;19908;-74
2021/11/01 00:43:44;;;;;;;;;;;13.10;99.90;;;;;;5094531;28;20461;-75
2021/11/01 00:46:10;;;;;;;;;;;13.20;99.90;;;;;;5094431;28;19912;-75
2021/11/01 00:48:36;;;;;;;;;;;13.20;99.90;;;;;;5094351;28;19912;-74
2021/11/01 00:51:02;;;;;;;;;;;13.30;99.90;;;;;;5093804;28;20297;-74
2021/11/01 00:53:33;;;;;;;;;;;13.40;99.90;;;;;;5094315;28;20444;-75
2021/11/01 00:55:59;;;;;;;;;;;13.40;99.90;;;;;;5094147;28;19915;-75
2021/11/01 00:58:25;;;;;;;;;;;13.40;99.90;;;;;;5094201;28;19908;-75
2021/11/01 01:00:51;;;;;;;;;;;13.40;99.90;;;;;;5075539;28;19908;-75
2021/11/01 01:03:17;;;;;;;;;;;13.40;99.90;;;;;;5089974;28;19914;-74
2021/11/01 01:05:43;;;;;;;;;;;13.40;99.90;;;;;;5086036;28;19908;-75
2021/11/01 01:08:09;;;;;;;;;;;13.40;99.90;;;;;;5094001;28;19908;-75
2021/11/01 01:10:35;;;;;;;;;;;13.40;99.90;;;;;;5092538;28;20294;-75
2021/11/01 01:13:01;;;;;;;;;;;13.40;99.90;;;;;;5092614;28;19908;-75
2021/11/01 01:15:28;;;;;;;;;;;13.40;99.90;;;;;;5092700;28;20290;-74
2021/11/01 01:18:01;;;;;;;;;;;13.30;99.90;;;;;;5092357;28;19918;-74
2021/11/01 01:20:27;;;;;;;;;;;13.40;99.90;;;;;;5092287;28;19915;-75
2021/11/01 01:22:52;;;;;;;;;;;13.40;99.90;;;;;;5092653;28;19998;-75
2021/11/01 01:27:49;;;;;;;;;;;13.30;99.90;;;;;;5091444;28;20000;-74
2021/11/01 01:30:15;;;;;;;;;;;13.40;99.90;;;;;;5073735;28;19912;-75
2021/11/01 01:32:42;;;;;;;;;;;13.50;99.90;;;;;;5088029;28;19908;-75
2021/11/01 01:35:08;;;;;;;;;;;13.40;99.90;;;;;;5086518;28;20402;-75
2021/11/01 01:37:33;;;;;;;;;;;13.40;99.90;;;;;;5092139;28;19909;-75
2021/11/01 01:39:59;;;;;;;;;;;13.40;99.90;;;;;;5091815;28;19999;-75
2021/11/01 01:42:25;;;;;;;;;;;13.30;99.90;;;;;;5092181;28;20318;-74
2021/11/01 01:44:51;;;;;;;;;;;13.30;99.90;;;;;;5074066;28;19908;-74
2021/11/01 01:47:16;;;;;;;;;;;13.10;99.90;;;;;;5092210;28;19912;-75
2021/11/01 01:49:43;;;;;;;;;;;13.10;99.90;;;;;;5091707;28;19912;-74
2021/11/01 01:52:09;;;;;;;;;;;13.00;99.90;;;;;;5092064;28;19912;-74
2021/11/01 01:54:35;;;;;;;;;;;12.90;99.90;;;;;;5068040;28;20282;-75
2021/11/01 01:57:00;;;;;;;;;;;12.90;99.90;;;;;;5091937;28;19919;-75
2021/11/01 01:59:26;;;;;;;;;;;13.00;99.90;;;;;;5091872;28;19908;-75
2021/11/01 02:01:52;;;;;;;;;;;12.90;99.90;;;;;;5091932;28;20358;-75
2021/11/01 02:04:22;;;;;;;;;;;12.90;99.90;;;;;;5070641;28;20007;-74
2021/11/01 02:07:05;;;;;;;;;;;13.10;99.90;;;;;;5091744;28;19970;-75
2021/11/01 02:09:36;;;;;;;;;;;13.00;99.90;;;;;;5029052;28;1784012;-75
2021/11/01 02:12:03;;;;;;;;;;;13.10;99.90;;;;;;5092539;28;19909;-75
2021/11/01 02:14:38;;;;;;;;;;;13.10;99.90;;;;;;5092699;28;19908;-74
2021/11/01 02:17:04;;;;;;;;;;;13.10;99.90;;;;;;5092643;28;19912;-74
2021/11/01 02:19:33;;;;;;;;;;;13.00;99.90;;;;;;5092431;28;19920;-74
2021/11/01 02:22:00;;;;;;;;;;;13.00;99.90;;;;;;5092332;28;19943;-75
2021/11/01 02:24:43;;;;;;;;;;;12.60;99.90;;;;;;5092530;28;20252;-75
2021/11/01 02:27:11;;;;;;;;;;;11.80;99.90;;;;;;5092437;28;20420;-75
2021/11/01 02:29:41;;;;;;;;;;;11.40;99.90;;;;;;5091235;28;19912;-74
2021/11/01 02:32:07;;;;;;;;;;;11.20;99.90;;;;;;5089184;28;19914;-75
2021/11/01 02:34:33;;;;;;;;;;;11.00;99.90;;;;;;5083644;28;20006;-75
2021/11/01 02:36:59;;;;;;;;;;;10.90;99.90;;;;;;5091339;28;19915;-75
2021/11/01 02:39:25;;;;;;;;;;;10.80;99.90;;;;;;5092102;28;19919;-74
2021/11/01 02:41:51;;;;;;;;;;;10.70;99.90;;;;;;5091815;28;19908;-75
2021/11/01 02:44:17;;;;;;;;;;;10.60;99.90;;;;;;5091959;28;19954;-75
2021/11/01 02:46:45;;;;;;;;;;;10.50;99.90;;;;;;5092506;28;20327;-74
2021/11/01 02:49:10;;;;;;;;;;;10.50;99.90;;;;;;5091914;28;19912;-74
2021/11/01 02:51:36;;;;;;;;;;;10.50;99.90;;;;;;5091573;28;19915;-75
2021/11/01 02:54:02;;;;;;;;;;;10.50;99.90;;;;;;5091970;28;19915;-75
2021/11/01 02:56:28;;;;;;;;;;;10.40;99.90;;;;;;5091792;28;19908;-75
2021/11/01 02:58:54;;;;;;;;;;;10.40;99.90;;;;;;5091688;28;20002;-75
2021/11/01 03:01:21;;;;;;;;;;;10.30;99.90;;;;;;5091389;28;19908;-75
2021/11/01 03:03:46;;;;;;;;;;;10.30;99.90;;;;;;5087251;28;20002;-76
2021/11/01 03:06:13;;;;;;;;;;;10.20;99.90;;;;;;5075668;28;20012;-74
2021/11/01 03:08:40;;;;;;;;;;;10.20;99.90;;;;;;5071617;28;19970;-74
2021/11/01 03:11:06;;;;;;;;;;;10.20;99.90;;;;;;5071004;28;19919;-75
2021/11/01 03:13:32;;;;;;;;;;;10.10;99.90;;;;;;5071523;28;19999;-75
2021/11/01 03:16:00;;;;;;;;;;;10.10;99.90;;;;;;5053685;28;19961;-74
2021/11/01 03:18:30;;;;;;;;;;;10.10;99.90;;;;;;5071401;28;19930;-75
2021/11/01 03:20:57;;;;;;;;;;;10.00;99.90;;;;;;5053246;28;19913;-75
2021/11/01 03:23:24;;;;;;;;;;;10.00;99.90;;;;;;5071510;28;19915;-75
2021/11/01 03:25:56;;;;;;;;;;;9.90;99.90;;;;;;5071331;28;20323;-75
2021/11/01 03:28:22;;;;;;;;;;;9.90;99.90;;;;;;5071294;28;20409;-74
2021/11/01 03:30:48;;;;;;;;;;;9.90;99.90;;;;;;5070876;28;19909;-75
2021/11/01 03:33:14;;;;;;;;;;;9.90;99.90;;;;;;5079055;28;19915;-75
2021/11/01 03:35:42;;;;;;;;;;;9.90;99.90;;;;;;5071340;28;19978;-75
2021/11/01 03:38:07;;;;;;;;;;;9.90;99.90;;;;;;5071206;28;19909;-74
2021/11/01 03:40:35;;;;;;;;;;;9.90;99.90;;;;;;5070441;28;19908;-75
2021/11/01 03:43:04;;;;;;;;;;;9.80;99.90;;;;;;5071186;28;19915;-75
2021/11/01 03:45:30;;;;;;;;;;;9.80;99.90;;;;;;5071152;28;19916;-75
2021/11/01 03:48:02;;;;;;;;;;;9.80;99.90;;;;;;5071141;28;20003;-75
2021/11/01 03:50:37;;;;;;;;;;;9.80;99.90;;;;;;5071049;28;19920;-75
2021/11/01 03:53:03;;;;;;;;;;;9.80;99.90;;;;;;5070806;28;19916;-75
2021/11/01 03:55:29;;;;;;;;;;;9.80;99.90;;;;;;5070987;28;19909;-75
2021/11/01 03:57:56;;;;;;;;;;;9.70;99.90;;;;;;5071133;28;19908;-75
2021/11/01 04:00:24;;;;;;;;;;;9.70;99.90;;;;;;5070612;28;20032;-75
2021/11/01 04:02:50;;;;;;;;;;;9.70;99.90;;;;;;5057578;28;20396;-75
2021/11/01 04:05:16;;;;;;;;;;;9.70;99.90;;;;;;5090749;28;20316;-75
2021/11/01 04:07:41;;;;;;;;;;;9.70;99.90;;;;;;5090757;28;19916;-75
2021/11/01 04:10:08;;;;;;;;;;;9.60;99.90;;;;;;5090511;28;19945;-75
2021/11/01 04:12:34;;;;;;;;;;;9.60;99.90;;;;;;5090851;28;19919;-74
2021/11/01 04:15:09;;;;;;;;;;;9.50;99.90;;;;;;5090955;28;19999;-75
2021/11/01 04:17:39;;;;;;;;;;;9.50;99.90;;;;;;5090875;28;19966;-75
2021/11/01 04:22:35;;;;;;;;;;;9.60;99.90;;;;;;5091070;28;19916;-75
2021/11/01 04:25:01;;;;;;;;;;;9.50;99.90;;;;;;5091123;28;19909;-75
2021/11/01 04:27:27;;;;;;;;;;;9.40;99.90;;;;;;5090890;28;19908;-74
2021/11/01 04:29:52;;;;;;;;;;;9.40;99.90;;;;;;5090440;28;19958;-75
2021/11/01 04:32:31;;;;;;;;;;;9.30;99.90;;;;;;5090465;28;20366;-75
2021/11/01 04:35:07;;;;;;;;;;;9.40;99.90;;;;;;5070528;28;20286;-75
2021/11/01 04:37:32;;;;;;;;;;;9.50;99.90;;;;;;5070679;28;20570;-75
2021/11/01 04:40:11;;;;;;;;;;;9.50;99.90;;;;;;5070210;28;19909;-75
2021/11/01 04:43:01;;;;;;;;;;;9.40;99.90;;;;;;5070585;28;20417;-75
2021/11/01 04:53:37;;;;;;;;;;;9.00;99.90;;;;;;5072714;28;20741;-75
2021/11/01 04:56:02;;;;;;;;;;;9.00;99.90;;;;;;5056243;28;20386;-75
2021/11/01 04:58:28;;;;;;;;;;;9.10;99.90;;;;;;5074053;28;20007;-75
2021/11/01 05:00:54;;;;;;;;;;;9.00;99.90;;;;;;5073587;28;19912;-75
2021/11/01 05:05:51;;;;;;;;;;;9.10;99.90;;;;;;5094041;28;19995;-75
2021/11/01 05:08:19;;;;;;;;;;;9.10;99.90;;;;;;5094134;28;20000;-75
2021/11/01 05:10:49;;;;;;;;;;;9.10;99.90;;;;;;5093515;28;19916;-75
2021/11/01 05:13:24;;;;;;;;;;;9.10;99.90;;;;;;5094180;28;19912;-75
2021/11/01 05:15:56;;;;;;;;;;;9.10;99.90;;;;;;5094141;28;20004;-74
2021/11/01 05:23:35;;;;;;;;;;;9.10;99.90;;;;;;5094157;28;19940;-75
2021/11/01 05:35:57;;;;;;;;;;;8.60;99.90;;;;;;5073446;28;19909;-75
2021/11/01 05:38:23;;;;;;;;;;;8.70;99.90;;;;;;5073362;28;19953;-75
2021/11/01 05:40:48;;;;;;;;;;;8.80;99.90;;;;;;5072951;28;19915;-75
2021/11/01 05:43:14;;;;;;;;;;;8.80;99.90;;;;;;5073302;28;20386;-75
2021/11/01 05:45:39;;;;;;;;;;;8.80;99.90;;;;;;5073082;28;19947;-75
2021/11/01 05:48:05;;;;;;;;;;;8.80;99.90;;;;;;5073156;28;19908;-75
2021/11/01 05:50:32;;;;;;;;;;;8.70;99.90;;;;;;5072512;28;19913;-75
2021/11/01 05:52:59;;;;;;;;;;;8.60;99.90;;;;;;5073353;28;19908;-75
2021/11/01 06:03:39;;;;;;;;;;;8.20;99.90;;;;;;5082240;28;19912;-75
2021/11/01 06:06:40;;;;;;;;;;;8.10;99.90;;;;;;5092172;28;20359;-75
2021/11/01 06:09:19;;;;;;;;;;;8.10;99.90;;;;;;5092970;28;19912;-75
2021/11/01 06:14:29;;;;;;;;;;;8.00;99.90;;;;;;5093280;28;19960;-75
2021/11/01 06:16:55;;;;;;;;;;;8.00;99.90;;;;;;5094464;28;20095;-76
2021/11/01 06:19:21;;;;;;;;;;;8.00;99.90;;;;;;5094847;28;20378;-74
2021/11/01 06:21:48;;;;;;;;;;;8.00;99.90;;;;;;5094208;28;19909;-76
2021/11/01 06:26:58;;;;;;;;;;;7.90;99.90;;;;;;5094600;28;19915;-76
2021/11/01 06:29:30;;;;;;;;;;;7.90;99.90;;;;;;5094414;28;19916;-75
2021/11/01 06:49:43;;;;;;;;;;;7.90;99.90;;;;;;5068127;28;19908;-73
2021/11/01 06:51:50;;;;;;;;;;;7.90;99.90;;;;;;5054591;28;19908;-75
2021/11/01 07:15:29;;;;;;;;;;;7.80;99.90;;;;;;5092439;28;19915;-76
2021/11/01 08:24:07;;;;;;;;;;;8.20;99.90;;;;;;5071828;28;19919;-74
2021/11/01 08:44:55;;;;;;;;;;;8.30;99.90;;;;;;5095454;28;19916;-75
2021/11/01 09:01:42;;;;;;;;;;;8.50;99.90;;;;;;5094750;28;19915;-76
2021/11/01 09:07:09;;;;;;;;;;;8.50;99.90;;;;;;5074705;28;19909;-76
2021/11/01 09:21:26;;;;;;;;;;;8.70;99.90;;;;;;5092250;28;19908;-75
2021/11/01 09:28:37;;;;;;;;;;;8.80;99.90;;;;;;5074319;28;19923;-76
2021/11/01 09:36:43;;;;;;;;;;;9.10;99.90;;;;;;5094019;28;20393;-76
2021/11/01 09:41:48;;;;;;;;;;;9.20;99.90;;;;;;5093794;28;20011;-75
2021/11/01 09:44:17;;;;;;;;;;;9.30;99.90;;;;;;5094036;28;19945;-75
2021/11/01 09:46:42;;;;;;;;;;;9.20;99.90;;;;;;5094038;28;20279;-76
2021/11/01 09:51:37;;;;;;;;;;;9.30;99.90;;;;;;5081012;28;19917;-75
2021/11/01 09:54:03;;;;;;;;;;;9.50;99.90;;;;;;5073451;28;19915;-75
2021/11/01 09:59:12;;;;;;;;;;;9.30;99.90;;;;;;5073772;28;20424;-76
2021/11/01 10:01:38;;;;;;;;;;;9.40;99.90;;;;;;5073042;28;19948;-75
2021/11/01 10:04:12;;;;;;;;;;;9.40;99.90;;;;;;5077825;28;20336;-76
2021/11/01 10:06:37;;;;;;;;;;;9.40;99.90;;;;;;5073618;28;19908;-76
2021/11/01 10:09:04;;;;;;;;;;;9.20;99.90;;;;;;5073233;28;19912;-75
2021/11/01 10:11:33;;;;;;;;;;;9.20;99.90;;;;;;5072640;28;20324;-76
2021/11/01 10:13:59;;;;;;;;;;;9.20;99.90;;;;;;5076862;28;19908;-76
2021/11/01 10:19:13;;;;;;;;;;;9.30;99.90;;;;;;5077128;28;19915;-76
2021/11/01 10:22:00;;;;;;;;;;;9.30;99.90;;;;;;5076693;28;19962;-76
2021/11/01 10:24:27;;;;;;;;;;;9.30;99.90;;;;;;5076725;28;19916;-76
2021/11/01 10:26:54;;;;;;;;;;;9.30;99.90;;;;;;5059050;28;20375;-76
2021/11/01 10:29:21;;;;;;;;;;;9.30;99.90;;;;;;5076918;28;19913;-75
2021/11/01 10:31:47;;;;;;;;;;;9.30;99.90;;;;;;5075771;28;20298;-76
2021/11/01 10:34:14;;;;;;;;;;;9.30;99.90;;;;;;5088562;28;19987;-76
2021/11/01 10:36:40;;;;;;;;;;;9.30;99.90;;;;;;5093147;28;20298;-76
2021/11/01 10:39:25;;;;;;;;;;;9.30;99.90;;;;;;5092750;28;19953;-75
2021/11/01 10:44:55;;;;;;;;;;;9.40;99.90;;;;;;5096960;28;19908;-74
2021/11/01 10:59:06;;;;;;;;;;;9.40;99.90;;;;;;5096680;28;19976;-76
2021/11/01 11:12:43;;;;;;;;;;;9.50;99.90;;;;;;5064397;28;19962;-76
2021/11/01 11:15:13;;;;;;;;;;;9.50;99.90;;;;;;5076199;28;19954;-76
2021/11/01 11:18:02;;;;;;;;;;;9.50;99.90;;;;;;5076573;28;19908;-75
2021/11/01 11:20:49;;;;;;;;;;;9.50;99.90;;;;;;5074982;28;19977;-75
2021/11/01 11:26:18;;;;;;;;;;;9.90;99.90;;;;;;5086625;28;20011;-75
2021/11/01 11:49:33;;;;;;;;;;;9.30;99.90;;;;;;5093721;28;19916;-76
2021/11/01 11:52:01;;;;;;;;;;;9.40;99.90;;;;;;5073623;28;19909;-76
2021/11/01 11:54:38;;;;;;;;;;;9.40;99.90;;;;;;5082897;28;19913;-77
2021/11/01 11:57:14;;;;;;;;;;;9.50;99.90;;;;;;5091630;28;19909;-76
2021/11/01 11:59:40;;;;;;;;;;;9.50;99.90;;;;;;5089458;28;20002;-79
2021/11/01 12:02:09;;;;;;;;;;;9.60;99.90;;;;;;5096979;28;20125;-74
2021/11/01 12:04:43;;;;;;;;;;;9.70;99.90;;;;;;5082033;28;20095;-77
2021/11/01 12:07:13;;;;;;;;;;;9.70;99.90;;;;;;5081819;28;19908;-77
2021/11/01 12:09:51;;;;;;;;;;;9.70;99.90;;;;;;5082231;28;20027;-76
2021/11/01 12:17:23;;;;;;;;;;;9.70;99.90;;;;;;5087936;28;19915;-76
2021/11/01 12:19:49;;;;;;;;;;;9.80;99.90;;;;;;5080386;28;19908;-77
2021/11/01 12:22:22;;;;;;;;;;;9.70;99.90;;;;;;5076370;28;20298;-76
2021/11/01 12:24:50;;;;;;;;;;;9.70;99.90;;;;;;5085615;28;19970;-76
2021/11/01 12:27:16;;;;;;;;;;;9.70;99.90;;;;;;5072551;28;19955;-76
2021/11/01 12:29:43;;;;;;;;;;;9.70;99.90;;;;;;5073497;28;19920;-76
2021/11/01 12:32:10;;;;;;;;;;;9.60;99.90;;;;;;5075356;28;20267;-76
2021/11/01 12:34:42;;;;;;;;;;;9.50;99.90;;;;;;5089448;28;19916;-76
2021/11/01 12:37:13;;;;;;;;;;;9.50;99.90;;;;;;5072807;28;19916;-76
2021/11/01 12:39:47;;;;;;;;;;;9.50;99.90;;;;;;5074026;28;20278;-76
2021/11/01 12:58:20;;;;;;;;;;;9.60;99.90;;;;;;5073613;28;20001;-79
2021/11/01 13:00:45;;;;;;;;;;;9.60;99.90;;;;;;5073663;28;19956;-75
2021/11/01 13:03:16;;;;;;;;;;;9.50;99.90;;;;;;5088074;28;19908;-75
2021/11/01 13:05:44;;;;;;;;;;;9.50;99.90;;;;;;5086439;28;20313;-75
2021/11/01 13:08:13;;;;;;;;;;;9.60;99.90;;;;;;5091426;28;19938;-75
2021/11/01 13:10:43;;;;;;;;;;;9.50;99.90;;;;;;5080570;28;19923;-75
2021/11/01 13:18:18;;;;;;;;;;;9.50;99.90;;;;;;5087586;28;19908;-73
2021/11/01 13:20:47;;;;;;;;;;;9.50;99.90;;;;;;5086634;28;19908;-74
2021/11/01 13:23:13;;;;;;;;;;;9.60;99.90;;;;;;5086087;28;19908;-74
2021/11/01 13:37:32;;;;;;;;;;;9.60;99.90;;;;;;5088796;28;19969;-74
2021/11/01 13:40:00;;;;;;;;;;;9.60;99.90;;;;;;5088328;28;20286;-75
2021/11/01 13:42:25;;;;;;;;;;;9.60;99.90;;;;;;5076577;28;19917;-75
2021/11/01 13:44:51;;;;;;;;;;;9.60;99.90;;;;;;5072636;28;19989;-75
2021/11/01 13:47:17;;;;;;;;;;;9.60;99.90;;;;;;5083783;28;19919;-74
2021/11/01 13:49:46;;;;;;;;;;;9.60;99.90;;;;;;5088417;28;19931;-77
2021/11/01 13:54:56;;;;;;;;;;;9.60;99.90;;;;;;5084464;28;20385;-75
2021/11/01 13:57:21;;;;;;;;;;;9.60;99.90;;;;;;5083881;28;19912;-76
2021/11/01 13:59:56;;;;;;;;;;;9.70;99.90;;;;;;5081027;28;20459;-75
2021/11/01 14:13:24;;;;;;;;;;;10.00;99.90;;;;;;5083620;28;19914;-75
2021/11/01 15:10:06;;;;;;;;;;;10.10;99.90;;;;;;5095950;28;19999;-75
2021/11/01 15:25:45;;;;;;;;;;;10.00;99.90;;;;;;5075660;28;19908;-75
2021/11/01 15:33:51;;;;;;;;;;;9.60;99.90;;;;;;5075309;28;19960;-75
2021/11/01 16:20:03;;;;;;;;;;;7.50;99.90;;;;;;5085399;28;19912;-74
2021/11/01 16:22:29;;;;;;;;;;;7.40;99.90;;;;;;5080872;28;19916;-77
2021/11/01 16:24:54;;;;;;;;;;;7.20;99.90;;;;;;5085126;28;19912;-74
2021/11/01 16:27:21;;;;;;;;;;;7.10;99.90;;;;;;5090880;28;19912;-74
2021/11/01 16:29:57;;;;;;;;;;;7.00;99.90;;;;;;5090282;28;19912;-75
2021/11/01 16:34:52;;;;;;;;;;;6.70;99.90;;;;;;5091233;28;19915;-74
2021/11/01 16:39:51;;;;;;;;;;;6.60;99.90;;;;;;5090123;28;19908;-77
2021/11/01 16:42:17;;;;;;;;;;;6.60;99.90;;;;;;5090854;28;19965;-74
2021/11/01 16:44:43;;;;;;;;;;;6.60;99.90;;;;;;5078448;28;20003;-73
2021/11/01 16:47:09;;;;;;;;;;;6.60;99.90;;;;;;5052350;28;19915;-74
2021/11/01 16:49:35;;;;;;;;;;;6.70;99.90;;;;;;5072416;28;19916;-74
2021/11/01 16:52:09;;;;;;;;;;;6.70;99.90;;;;;;5074023;28;19908;-75
2021/11/01 16:54:36;;;;;;;;;;;6.80;99.90;;;;;;5074293;28;19916;-73
2021/11/01 16:57:13;;;;;;;;;;;6.80;99.90;;;;;;5073912;28;19916;-74
2021/11/01 17:04:57;;;;;;;;;;;6.80;99.90;;;;;;5073751;28;20003;-73
2021/11/01 17:26:30;;;;;;;;;;;6.60;99.90;;;;;;5084554;28;19966;-73
2021/11/01 17:37:28;;;;;;;;;;;7.10;99.90;;;;;;5091780;28;20392;-74
2021/11/01 18:38:15;;;;;;;;;;;5.90;99.90;;;;;;5093769;28;20417;-78
2021/11/01 18:40:53;;;;;;;;;;;5.80;99.90;;;;;;5093297;28;20006;-76
2021/11/01 18:51:45;;;;;;;;;;;5.30;99.90;;;;;;5092696;28;19919;-75
2021/11/01 18:54:18;;;;;;;;;;;5.20;99.90;;;;;;5098074;28;20351;-74
2021/11/01 18:56:45;;;;;;;;;;;5.20;99.90;;;;;;5084593;28;19909;-74
2021/11/01 18:59:11;;;;;;;;;;;5.10;99.90;;;;;;5092389;28;19908;-74
2021/11/01 19:01:38;;;;;;;;;;;5.00;99.90;;;;;;5096178;28;19919;-75
2021/11/01 19:04:09;;;;;;;;;;;4.90;99.90;;;;;;5096090;28;19908;-75
2021/11/01 19:06:58;;;;;;;;;;;4.70;99.90;;;;;;5077701;28;19908;-75
2021/11/01 20:04:19;;;;;;;;;;;3.80;99.90;;;;;;5091621;28;19919;-76
2021/11/01 20:06:56;;;;;;;;;;;3.80;99.90;;;;;;5091388;28;19912;-77
2021/11/01 20:12:19;;;;;;;;;;;3.80;99.90;;;;;;5083273;28;19908;-74
2021/11/01 21:26:25;;;;;;;;;;;3.80;99.90;;;;;;5094329;28;19962;-74
2021/11/01 21:28:50;;;;;;;;;;;3.70;99.90;;;;;;5094180;28;19908;-74
2021/11/01 21:31:17;;;;;;;;;;;3.80;99.90;;;;;;5093489;28;19923;-74
2021/11/01 21:33:47;;;;;;;;;;;3.70;99.90;;;;;;5079204;28;20432;-75
2021/11/01 21:36:23;;;;;;;;;;;3.70;99.90;;;;;;5074222;28;19915;-74
2021/11/01 21:38:48;;;;;;;;;;;3.70;99.90;;;;;;5073961;28;20015;-74
2021/11/01 21:41:14;;;;;;;;;;;3.80;99.90;;;;;;5073374;28;20003;-75
2021/11/01 21:43:39;;;;;;;;;;;3.80;99.90;;;;;;5073698;28;19962;-78
2021/11/01 21:46:05;;;;;;;;;;;3.90;99.90;;;;;;5074206;28;20043;-74
2021/11/01 21:48:30;;;;;;;;;;;3.90;99.90;;;;;;5055389;28;19954;-74
2021/11/01 21:50:56;;;;;;;;;;;4.10;99.90;;;;;;5073017;28;19913;-75
2021/11/01 21:53:25;;;;;;;;;;;4.10;99.90;;;;;;5073552;28;19996;-75
2021/11/01 21:55:50;;;;;;;;;;;4.20;99.90;;;;;;5074004;28;19934;-74
2021/11/01 22:31:58;;;;;;;;;;;3.80;99.90;;;;;;5072729;28;19961;-75
2021/11/01 22:33:07;;;;;;;;;;;3.90;99.90;;;;;;5072672;28;19917;-75
2021/11/01 22:40:50;;;;;;;;;;;3.90;99.90;;;;;;5092212;28;20072;-75
2021/11/01 22:58:53;;;;;;;;;;;3.50;99.90;;;;;;5092191;28;19908;-77
2021/11/01 23:01:22;;;;;;;;;;;3.50;99.90;;;;;;5091864;28;19908;-75
2021/11/01 23:31:25;;;;;;;;;;;3.80;99.90;;;;;;5081341;28;19916;-77
2021/11/01 23:33:43;;;;;;;;;;;3.00;99.90;;;;;;5091801;28;19931;-75
2021/11/01 23:36:09;;;;;;;;;;;3.00;99.90;;;;;;5073742;28;20358;-75
2021/11/01 23:38:34;;;;;;;;;;;3.10;99.90;;;;;;5078333;28;19935;-77
2021/11/01 23:41:00;;;;;;;;;;;3.20;99.90;;;;;;5068853;28;19912;-76
2021/11/01 23:43:26;;;;;;;;;;;3.40;99.90;;;;;;5071392;28;19908;-75
2021/11/01 23:45:51;;;;;;;;;;;3.40;99.90;;;;;;5071397;28;19915;-75
2021/11/01 23:48:18;;;;;;;;;;;3.50;99.90;;;;;;5053300;28;19999;-75
2021/11/01 23:50:45;;;;;;;;;;;3.70;99.90;;;;;;5052877;28;19913;-75
2021/11/01 23:53:15;;;;;;;;;;;3.80;99.90;;;;;;5071110;28;19912;-76
2021/11/01 23:55:41;;;;;;;;;;;3.90;99.90;;;;;;5071607;28;19909;-75
2021/11/01 23:58:07;;;;;;;;;;;4.00;99.90;;;;;;5053063;28;20342;-75
